< < Back
Terminal Aerodrome Forecast


Current Version              Previous Versions:   1  2  3  4  5  6  7  8  9  

Terminal Aerodrome Forecast

685
FTUS44 KHUN 011120
TAFHSV
TAF
KHSV 011120Z 0112/0212 00000KT P6SM SCT250
      TEMPO 0112/0114 4SM BR
     FM011400 18004KT P6SM SCT050
     FM020000 14003KT P6SM SKC=

Latest METAR

738
SAUS80 KWBC 012200 RRF
MTRHSV
METAR KHSV 012153Z 19004KT 10SM FEW070 31/12 A2994 RMK AO2 SLP130
T03060122


USA.gov is the U.S. government's official web portal to all federal, state and local government web resources and services.